sensor_id;sensor_type;location;lat;lon;timestamp;temperature;humidity
47482;DHT22;33219;47.410;9.730;2023-03-14T00:02:17;10.40;99.90
47482;DHT22;33219;47.410;9.730;2023-03-14T00:04:45;10.30;99.90
47482;DHT22;33219;47.410;9.730;2023-03-14T00:07:13;10.20;99.90
47482;DHT22;33219;47.410;9.730;2023-03-14T00:09:41;10.10;99.90
47482;DHT22;33219;47.410;9.730;2023-03-14T00:12:09;9.90;99.90
47482;DHT22;33219;47.410;9.730;2023-03-14T00:14:37;9.70;99.90
47482;DHT22;33219;47.410;9.730;2023-03-14T00:17:04;9.50;99.90
47482;DHT22;33219;47.410;9.730;2023-03-14T00:19:32;9.40;99.90
47482;DHT22;33219;47.410;9.730;2023-03-14T00:21:59;9.30;99.90
47482;DHT22;33219;47.410;9.730;2023-03-14T00:24:27;9.30;99.90
47482;DHT22;33219;47.410;9.730;2023-03-14T00:26:54;9.10;99.90
47482;DHT22;33219;47.410;9.730;2023-03-14T00:29:22;9.10;99.90
47482;DHT22;33219;47.410;9.730;2023-03-14T00:31:50;9.00;99.90
47482;DHT22;33219;47.410;9.730;2023-03-14T00:34:17;9.00;99.90
47482;DHT22;33219;47.410;9.730;2023-03-14T00:36:45;9.00;99.90
47482;DHT22;33219;47.410;9.730;2023-03-14T00:39:13;8.90;99.90
47482;DHT22;33219;47.410;9.730;2023-03-14T00:41:40;8.90;99.90
47482;DHT22;33219;47.410;9.730;2023-03-14T00:44:08;8.90;99.90
47482;DHT22;33219;47.410;9.730;2023-03-14T00:46:35;8.90;99.90
47482;DHT22;33219;47.410;9.730;2023-03-14T00:49:03;8.80;99.90
47482;DHT22;33219;47.410;9.730;2023-03-14T00:51:31;8.80;99.90
47482;DHT22;33219;47.410;9.730;2023-03-14T00:53:59;8.70;99.90
47482;DHT22;33219;47.410;9.730;2023-03-14T00:56:27;8.70;99.90
47482;DHT22;33219;47.410;9.730;2023-03-14T00:58:55;8.60;99.90
47482;DHT22;33219;47.410;9.730;2023-03-14T01:01:23;8.50;99.90
47482;DHT22;33219;47.410;9.730;2023-03-14T01:03:52;8.50;99.90
47482;DHT22;33219;47.410;9.730;2023-03-14T01:06:23;8.40;99.90
47482;DHT22;33219;47.410;9.730;2023-03-14T01:08:51;8.30;99.90
47482;DHT22;33219;47.410;9.730;2023-03-14T01:11:22;8.30;99.90
47482;DHT22;33219;47.410;9.730;2023-03-14T01:13:50;8.20;99.90
47482;DHT22;33219;47.410;9.730;2023-03-14T01:16:20;8.20;99.90
47482;DHT22;33219;47.410;9.730;2023-03-14T01:18:48;8.10;99.90
47482;DHT22;33219;47.410;9.730;2023-03-14T01:21:21;8.10;99.90
47482;DHT22;33219;47.410;9.730;2023-03-14T01:23:52;8.00;99.90
47482;DHT22;33219;47.410;9.730;2023-03-14T01:26:21;8.00;99.90
47482;DHT22;33219;47.410;9.730;2023-03-14T01:28:50;8.00;99.90
47482;DHT22;33219;47.410;9.730;2023-03-14T01:31:18;8.00;99.90
47482;DHT22;33219;47.410;9.730;2023-03-14T01:33:46;8.00;99.90
47482;DHT22;33219;47.410;9.730;2023-03-14T01:36:14;8.00;99.90
47482;DHT22;33219;47.410;9.730;2023-03-14T01:38:41;7.90;99.90
47482;DHT22;33219;47.410;9.730;2023-03-14T01:41:15;8.00;99.90
47482;DHT22;33219;47.410;9.730;2023-03-14T01:43:43;8.00;99.90
47482;DHT22;33219;47.410;9.730;2023-03-14T01:49:24;7.90;99.90
47482;DHT22;33219;47.410;9.730;2023-03-14T01:51:54;7.90;99.90
47482;DHT22;33219;47.410;9.730;2023-03-14T01:54:42;7.90;99.90
47482;DHT22;33219;47.410;9.730;2023-03-14T01:57:15;7.90;99.90
47482;DHT22;33219;47.410;9.730;2023-03-14T01:59:46;7.90;99.90
47482;DHT22;33219;47.410;9.730;2023-03-14T02:02:14;7.90;99.90
47482;DHT22;33219;47.410;9.730;2023-03-14T02:04:42;7.80;99.90
47482;DHT22;33219;47.410;9.730;2023-03-14T02:07:38;7.70;99.90
47482;DHT22;33219;47.410;9.730;2023-03-14T02:10:06;7.70;99.90
47482;DHT22;33219;47.410;9.730;2023-03-14T02:12:34;7.60;99.90
47482;DHT22;33219;47.410;9.730;2023-03-14T02:15:03;7.60;99.90
47482;DHT22;33219;47.410;9.730;2023-03-14T02:17:31;7.60;99.90
47482;DHT22;33219;47.410;9.730;2023-03-14T02:22:51;7.60;99.90
47482;DHT22;33219;47.410;9.730;2023-03-14T02:25:39;7.60;99.90
47482;DHT22;33219;47.410;9.730;2023-03-14T02:28:07;7.70;99.90
47482;DHT22;33219;47.410;9.730;2023-03-14T02:30:35;7.60;99.90
47482;DHT22;33219;47.410;9.730;2023-03-14T02:33:15;7.70;99.90
47482;DHT22;33219;47.410;9.730;2023-03-14T02:35:55;7.70;99.90
47482;DHT22;33219;47.410;9.730;2023-03-14T02:38:41;7.60;99.90
47482;DHT22;33219;47.410;9.730;2023-03-14T02:41:04;7.60;99.90
47482;DHT22;33219;47.410;9.730;2023-03-14T02:43:32;7.60;99.90
47482;DHT22;33219;47.410;9.730;2023-03-14T02:46:01;7.60;99.90
47482;DHT22;33219;47.410;9.730;2023-03-14T02:48:34;7.60;99.90
47482;DHT22;33219;47.410;9.730;2023-03-14T02:51:07;7.60;99.90
47482;DHT22;33219;47.410;9.730;2023-03-14T02:53:36;7.60;99.90
47482;DHT22;33219;47.410;9.730;2023-03-14T02:56:06;7.60;99.90
47482;DHT22;33219;47.410;9.730;2023-03-14T02:58:34;7.60;99.90
47482;DHT22;33219;47.410;9.730;2023-03-14T03:01:02;7.60;99.90
47482;DHT22;33219;47.410;9.730;2023-03-14T03:03:30;7.60;99.90
47482;DHT22;33219;47.410;9.730;2023-03-14T03:05:58;7.60;99.90
47482;DHT22;33219;47.410;9.730;2023-03-14T03:08:26;7.60;99.90
47482;DHT22;33219;47.410;9.730;2023-03-14T03:10:54;7.60;99.90
47482;DHT22;33219;47.410;9.730;2023-03-14T03:13:22;7.60;99.90
47482;DHT22;33219;47.410;9.730;2023-03-14T03:15:49;7.60;99.90
47482;DHT22;33219;47.410;9.730;2023-03-14T03:18:17;7.60;99.90
47482;DHT22;33219;47.410;9.730;2023-03-14T03:20:45;7.60;99.90
47482;DHT22;33219;47.410;9.730;2023-03-14T03:23:13;7.60;99.90
47482;DHT22;33219;47.410;9.730;2023-03-14T03:25:40;7.60;99.90
47482;DHT22;33219;47.410;9.730;2023-03-14T03:28:08;7.60;99.90
47482;DHT22;33219;47.410;9.730;2023-03-14T03:30:39;7.60;99.90
47482;DHT22;33219;47.410;9.730;2023-03-14T03:33:08;7.60;99.90
47482;DHT22;33219;47.410;9.730;2023-03-14T03:35:47;7.60;99.90
47482;DHT22;33219;47.410;9.730;2023-03-14T03:38:15;7.60;99.90
47482;DHT22;33219;47.410;9.730;2023-03-14T03:40:43;7.60;99.90
47482;DHT22;33219;47.410;9.730;2023-03-14T03:43:11;7.60;99.90
47482;DHT22;33219;47.410;9.730;2023-03-14T03:45:38;7.60;99.90
47482;DHT22;33219;47.410;9.730;2023-03-14T03:48:06;7.60;99.90
47482;DHT22;33219;47.410;9.730;2023-03-14T03:50:34;7.50;99.90
47482;DHT22;33219;47.410;9.730;2023-03-14T03:53:02;7.50;99.90
47482;DHT22;33219;47.410;9.730;2023-03-14T03:55:29;7.50;99.90
47482;DHT22;33219;47.410;9.730;2023-03-14T03:57:57;7.50;99.90
47482;DHT22;33219;47.410;9.730;2023-03-14T04:00:24;7.50;99.90
47482;DHT22;33219;47.410;9.730;2023-03-14T04:02:52;7.50;99.90
47482;DHT22;33219;47.410;9.730;2023-03-14T04:05:19;7.50;99.90
47482;DHT22;33219;47.410;9.730;2023-03-14T04:07:47;7.50;99.90
47482;DHT22;33219;47.410;9.730;2023-03-14T04:10:15;7.60;99.90
47482;DHT22;33219;47.410;9.730;2023-03-14T04:12:42;7.60;99.90
47482;DHT22;33219;47.410;9.730;2023-03-14T04:15:10;7.60;99.90
47482;DHT22;33219;47.410;9.730;2023-03-14T04:17:38;7.60;99.90
47482;DHT22;33219;47.410;9.730;2023-03-14T04:20:06;7.60;99.90
47482;DHT22;33219;47.410;9.730;2023-03-14T04:22:36;7.60;99.90
47482;DHT22;33219;47.410;9.730;2023-03-14T04:25:03;7.60;99.90
47482;DHT22;33219;47.410;9.730;2023-03-14T04:27:31;7.60;99.90
47482;DHT22;33219;47.410;9.730;2023-03-14T04:29:59;7.60;99.90
47482;DHT22;33219;47.410;9.730;2023-03-14T04:32:26;7.60;99.90
47482;DHT22;33219;47.410;9.730;2023-03-14T04:34:54;7.60;99.90
47482;DHT22;33219;47.410;9.730;2023-03-14T04:37:22;7.60;99.90
47482;DHT22;33219;47.410;9.730;2023-03-14T04:39:49;7.50;99.90
47482;DHT22;33219;47.410;9.730;2023-03-14T04:42:17;7.50;99.90
47482;DHT22;33219;47.410;9.730;2023-03-14T04:44:45;7.50;99.90
47482;DHT22;33219;47.410;9.730;2023-03-14T04:47:13;7.50;99.90
47482;DHT22;33219;47.410;9.730;2023-03-14T04:49:40;7.40;99.90
47482;DHT22;33219;47.410;9.730;2023-03-14T04:52:08;7.40;99.90
47482;DHT22;33219;47.410;9.730;2023-03-14T04:54:36;7.40;99.90
47482;DHT22;33219;47.410;9.730;2023-03-14T04:57:04;7.40;99.90
47482;DHT22;33219;47.410;9.730;2023-03-14T04:59:31;7.40;99.90
47482;DHT22;33219;47.410;9.730;2023-03-14T05:01:59;7.40;99.90
47482;DHT22;33219;47.410;9.730;2023-03-14T05:04:26;7.40;99.90
47482;DHT22;33219;47.410;9.730;2023-03-14T05:06:54;7.40;99.90
47482;DHT22;33219;47.410;9.730;2023-03-14T05:09:21;7.40;99.90
47482;DHT22;33219;47.410;9.730;2023-03-14T05:11:49;7.40;99.90
47482;DHT22;33219;47.410;9.730;2023-03-14T05:14:17;7.40;99.90
47482;DHT22;33219;47.410;9.730;2023-03-14T05:16:44;7.30;99.90
47482;DHT22;33219;47.410;9.730;2023-03-14T05:19:12;7.40;99.90
47482;DHT22;33219;47.410;9.730;2023-03-14T05:21:40;7.30;99.90
47482;DHT22;33219;47.410;9.730;2023-03-14T05:24:07;7.30;99.90
47482;DHT22;33219;47.410;9.730;2023-03-14T05:26:35;7.30;99.90
47482;DHT22;33219;47.410;9.730;2023-03-14T05:29:02;7.20;99.90
47482;DHT22;33219;47.410;9.730;2023-03-14T05:31:30;7.20;99.90
47482;DHT22;33219;47.410;9.730;2023-03-14T05:33:57;7.20;99.90
47482;DHT22;33219;47.410;9.730;2023-03-14T05:36:25;7.20;99.90
47482;DHT22;33219;47.410;9.730;2023-03-14T05:38:53;7.20;99.90
47482;DHT22;33219;47.410;9.730;2023-03-14T05:41:26;7.10;99.90
47482;DHT22;33219;47.410;9.730;2023-03-14T05:43:49;7.10;99.90
47482;DHT22;33219;47.410;9.730;2023-03-14T05:46:17;7.20;99.90
47482;DHT22;33219;47.410;9.730;2023-03-14T05:48:45;7.20;99.90
47482;DHT22;33219;47.410;9.730;2023-03-14T05:51:14;7.20;99.90
47482;DHT22;33219;47.410;9.730;2023-03-14T05:53:42;7.20;99.90
47482;DHT22;33219;47.410;9.730;2023-03-14T05:56:09;7.20;99.90
47482;DHT22;33219;47.410;9.730;2023-03-14T05:58:37;7.30;99.90
47482;DHT22;33219;47.410;9.730;2023-03-14T06:01:05;7.30;99.90
47482;DHT22;33219;47.410;9.730;2023-03-14T06:03:34;7.30;99.90
47482;DHT22;33219;47.410;9.730;2023-03-14T06:06:02;7.20;99.90
47482;DHT22;33219;47.410;9.730;2023-03-14T06:08:29;7.20;99.90
47482;DHT22;33219;47.410;9.730;2023-03-14T06:10:57;7.20;99.90
47482;DHT22;33219;47.410;9.730;2023-03-14T06:13:25;7.20;99.90
47482;DHT22;33219;47.410;9.730;2023-03-14T06:15:53;7.20;99.90
47482;DHT22;33219;47.410;9.730;2023-03-14T06:18:20;7.20;99.90
47482;DHT22;33219;47.410;9.730;2023-03-14T06:20:48;7.20;99.90
47482;DHT22;33219;47.410;9.730;2023-03-14T06:23:17;7.20;99.90
47482;DHT22;33219;47.410;9.730;2023-03-14T06:25:50;7.20;99.90
47482;DHT22;33219;47.410;9.730;2023-03-14T06:28:46;7.20;99.90
47482;DHT22;33219;47.410;9.730;2023-03-14T06:31:31;7.20;99.90
47482;DHT22;33219;47.410;9.730;2023-03-14T06:34:12;7.20;99.90
47482;DHT22;33219;47.410;9.730;2023-03-14T06:42:39;7.20;99.90
47482;DHT22;33219;47.410;9.730;2023-03-14T06:45:40;7.20;99.90
47482;DHT22;33219;47.410;9.730;2023-03-14T06:48:37;7.20;99.90
47482;DHT22;33219;47.410;9.730;2023-03-14T06:55:01;7.20;99.90
47482;DHT22;33219;47.410;9.730;2023-03-14T06:57:55;7.10;99.90
47482;DHT22;33219;47.410;9.730;2023-03-14T07:00:32;7.20;99.90
47482;DHT22;33219;47.410;9.730;2023-03-14T07:06:47;7.20;99.90
47482;DHT22;33219;47.410;9.730;2023-03-14T07:35:18;7.70;99.90
47482;DHT22;33219;47.410;9.730;2023-03-14T07:38:55;7.90;99.90
47482;DHT22;33219;47.410;9.730;2023-03-14T07:51:06;8.10;99.90
47482;DHT22;33219;47.410;9.730;2023-03-14T07:56:56;8.60;99.90
47482;DHT22;33219;47.410;9.730;2023-03-14T08:03:26;9.00;99.90
47482;DHT22;33219;47.410;9.730;2023-03-14T08:10:07;9.40;99.90
47482;DHT22;33219;47.410;9.730;2023-03-14T08:22:07;9.30;99.90
47482;DHT22;33219;47.410;9.730;2023-03-14T08:27:41;9.80;99.90
47482;DHT22;33219;47.410;9.730;2023-03-14T08:46:34;11.90;99.90
47482;DHT22;33219;47.410;9.730;2023-03-14T08:49:31;11.70;99.90
47482;DHT22;33219;47.410;9.730;2023-03-14T09:29:55;13.70;99.90
47482;DHT22;33219;47.410;9.730;2023-03-14T09:33:22;13.60;99.90
47482;DHT22;33219;47.410;9.730;2023-03-14T10:01:01;12.30;99.90
47482;DHT22;33219;47.410;9.730;2023-03-14T10:03:36;12.40;99.90
47482;DHT22;33219;47.410;9.730;2023-03-14T10:06:15;12.40;99.90
47482;DHT22;33219;47.410;9.730;2023-03-14T10:08:45;12.50;99.90
47482;DHT22;33219;47.410;9.730;2023-03-14T10:11:17;12.50;99.90
47482;DHT22;33219;47.410;9.730;2023-03-14T10:14:07;12.40;99.90
47482;DHT22;33219;47.410;9.730;2023-03-14T10:16:47;12.30;99.90
47482;DHT22;33219;47.410;9.730;2023-03-14T10:19:21;12.30;99.90
47482;DHT22;33219;47.410;9.730;2023-03-14T10:21:53;12.20;99.90
47482;DHT22;33219;47.410;9.730;2023-03-14T10:24:27;12.10;99.90
47482;DHT22;33219;47.410;9.730;2023-03-14T10:27:04;11.80;99.90
47482;DHT22;33219;47.410;9.730;2023-03-14T10:29:51;11.70;99.90
47482;DHT22;33219;47.410;9.730;2023-03-14T10:32:19;11.70;99.90
47482;DHT22;33219;47.410;9.730;2023-03-14T10:37:34;11.80;99.90
47482;DHT22;33219;47.410;9.730;2023-03-14T10:40:12;11.90;99.90
47482;DHT22;33219;47.410;9.730;2023-03-14T10:42:50;12.00;99.90
47482;DHT22;33219;47.410;9.730;2023-03-14T10:45:42;12.00;99.90
47482;DHT22;33219;47.410;9.730;2023-03-14T10:48:31;11.90;99.90
47482;DHT22;33219;47.410;9.730;2023-03-14T10:51:28;12.10;99.90
47482;DHT22;33219;47.410;9.730;2023-03-14T10:54:03;12.10;99.90
47482;DHT22;33219;47.410;9.730;2023-03-14T10:56:40;12.00;99.90
47482;DHT22;33219;47.410;9.730;2023-03-14T10:59:17;11.70;99.90
47482;DHT22;33219;47.410;9.730;2023-03-14T11:07:44;11.60;99.90
47482;DHT22;33219;47.410;9.730;2023-03-14T11:16:39;11.70;99.90
47482;DHT22;33219;47.410;9.730;2023-03-14T11:33:31;12.00;99.90
47482;DHT22;33219;47.410;9.730;2023-03-14T11:35:58;12.10;99.90
47482;DHT22;33219;47.410;9.730;2023-03-14T11:38:50;12.10;99.90
47482;DHT22;33219;47.410;9.730;2023-03-14T11:41:36;12.10;99.90
47482;DHT22;33219;47.410;9.730;2023-03-14T11:44:24;12.00;99.90
47482;DHT22;33219;47.410;9.730;2023-03-14T11:47:01;12.10;99.90
47482;DHT22;33219;47.410;9.730;2023-03-14T11:49:38;12.10;99.90
47482;DHT22;33219;47.410;9.730;2023-03-14T11:52:13;12.00;99.90
47482;DHT22;33219;47.410;9.730;2023-03-14T11:54:51;12.00;99.90
47482;DHT22;33219;47.410;9.730;2023-03-14T11:57:21;12.10;99.90
47482;DHT22;33219;47.410;9.730;2023-03-14T12:02:38;12.10;99.90
47482;DHT22;33219;47.410;9.730;2023-03-14T12:13:56;12.00;99.90
47482;DHT22;33219;47.410;9.730;2023-03-14T12:16:36;12.00;99.90
47482;DHT22;33219;47.410;9.730;2023-03-14T12:18:55;11.80;99.90
47482;DHT22;33219;47.410;9.730;2023-03-14T12:21:42;11.70;99.90
47482;DHT22;33219;47.410;9.730;2023-03-14T12:24:01;11.50;99.90
47482;DHT22;33219;47.410;9.730;2023-03-14T12:29:27;11.20;99.90
47482;DHT22;33219;47.410;9.730;2023-03-14T12:32:23;10.80;99.90
47482;DHT22;33219;47.410;9.730;2023-03-14T12:35:50;10.70;99.90
47482;DHT22;33219;47.410;9.730;2023-03-14T12:37:44;10.50;99.90
47482;DHT22;33219;47.410;9.730;2023-03-14T12:40:24;10.10;99.90
47482;DHT22;33219;47.410;9.730;2023-03-14T12:43:02;10.00;99.90
47482;DHT22;33219;47.410;9.730;2023-03-14T12:45:36;9.70;99.90
47482;DHT22;33219;47.410;9.730;2023-03-14T12:48:26;9.50;99.90
47482;DHT22;33219;47.410;9.730;2023-03-14T12:51:05;9.40;99.90
47482;DHT22;33219;47.410;9.730;2023-03-14T13:02:45;9.10;99.90
47482;DHT22;33219;47.410;9.730;2023-03-14T13:05:19;9.10;99.90
47482;DHT22;33219;47.410;9.730;2023-03-14T13:10:43;8.90;99.90
47482;DHT22;33219;47.410;9.730;2023-03-14T13:13:24;8.70;99.90
47482;DHT22;33219;47.410;9.730;2023-03-14T13:16:10;8.60;99.90
47482;DHT22;33219;47.410;9.730;2023-03-14T13:21:39;8.50;99.90
47482;DHT22;33219;47.410;9.730;2023-03-14T13:24:42;8.50;99.90
47482;DHT22;33219;47.410;9.730;2023-03-14T13:27:21;8.50;99.90
47482;DHT22;33219;47.410;9.730;2023-03-14T13:29:53;8.50;99.90
47482;DHT22;33219;47.410;9.730;2023-03-14T13:32:27;8.60;99.90
47482;DHT22;33219;47.410;9.730;2023-03-14T13:34:58;8.70;99.90
47482;DHT22;33219;47.410;9.730;2023-03-14T13:37:38;8.70;99.90
47482;DHT22;33219;47.410;9.730;2023-03-14T13:40:18;8.90;99.90
47482;DHT22;33219;47.410;9.730;2023-03-14T13:42:47;8.90;99.90
47482;DHT22;33219;47.410;9.730;2023-03-14T13:45:20;9.00;99.90
47482;DHT22;33219;47.410;9.730;2023-03-14T13:48:03;9.00;99.90
47482;DHT22;33219;47.410;9.730;2023-03-14T13:50:39;9.00;99.90
47482;DHT22;33219;47.410;9.730;2023-03-14T13:53:17;9.10;99.90
47482;DHT22;33219;47.410;9.730;2023-03-14T13:55:50;9.20;99.90
47482;DHT22;33219;47.410;9.730;2023-03-14T13:58:34;9.30;99.90
47482;DHT22;33219;47.410;9.730;2023-03-14T14:01:29;9.20;99.90
47482;DHT22;33219;47.410;9.730;2023-03-14T14:04:13;9.30;99.90
47482;DHT22;33219;47.410;9.730;2023-03-14T14:06:58;9.30;99.90
47482;DHT22;33219;47.410;9.730;2023-03-14T14:09:39;9.30;99.90
47482;DHT22;33219;47.410;9.730;2023-03-14T14:12:21;9.30;99.90
47482;DHT22;33219;47.410;9.730;2023-03-14T14:18:10;9.10;99.90
47482;DHT22;33219;47.410;9.730;2023-03-14T14:20:51;8.90;99.90
47482;DHT22;33219;47.410;9.730;2023-03-14T14:23:25;8.50;99.90
47482;DHT22;33219;47.410;9.730;2023-03-14T14:25:56;8.30;99.90
47482;DHT22;33219;47.410;9.730;2023-03-14T14:28:29;8.10;99.90
47482;DHT22;33219;47.410;9.730;2023-03-14T14:36:24;7.70;99.90
47482;DHT22;33219;47.410;9.730;2023-03-14T14:39:17;7.70;99.90
47482;DHT22;33219;47.410;9.730;2023-03-14T14:41:48;7.70;99.90
47482;DHT22;33219;47.410;9.730;2023-03-14T14:44:30;7.60;99.90
47482;DHT22;33219;47.410;9.730;2023-03-14T14:46:49;7.70;99.90
47482;DHT22;33219;47.410;9.730;2023-03-14T14:49:19;7.70;99.90
47482;DHT22;33219;47.410;9.730;2023-03-14T14:51:50;7.80;99.90
47482;DHT22;33219;47.410;9.730;2023-03-14T14:54:32;7.80;99.90
47482;DHT22;33219;47.410;9.730;2023-03-14T14:56:51;7.80;99.90
47482;DHT22;33219;47.410;9.730;2023-03-14T14:59:22;7.80;99.90
47482;DHT22;33219;47.410;9.730;2023-03-14T15:01:54;7.80;99.90
47482;DHT22;33219;47.410;9.730;2023-03-14T15:04:19;7.80;99.90
47482;DHT22;33219;47.410;9.730;2023-03-14T15:06:49;7.80;99.90
47482;DHT22;33219;47.410;9.730;2023-03-14T15:09:21;7.90;99.90
47482;DHT22;33219;47.410;9.730;2023-03-14T15:11:52;7.80;99.90
47482;DHT22;33219;47.410;9.730;2023-03-14T15:14:20;7.80;99.90
47482;DHT22;33219;47.410;9.730;2023-03-14T15:16:47;7.90;99.90
47482;DHT22;33219;47.410;9.730;2023-03-14T15:19:22;7.90;99.90
47482;DHT22;33219;47.410;9.730;2023-03-14T15:21:46;7.90;99.90
47482;DHT22;33219;47.410;9.730;2023-03-14T15:24:13;7.80;99.90
47482;DHT22;33219;47.410;9.730;2023-03-14T15:26:41;7.70;99.90
47482;DHT22;33219;47.410;9.730;2023-03-14T15:29:11;7.60;99.90
47482;DHT22;33219;47.410;9.730;2023-03-14T15:31:39;7.30;99.90
47482;DHT22;33219;47.410;9.730;2023-03-14T15:34:07;7.30;99.90
47482;DHT22;33219;47.410;9.730;2023-03-14T15:36:36;7.10;99.90
47482;DHT22;33219;47.410;9.730;2023-03-14T15:39:06;7.00;99.90
47482;DHT22;33219;47.410;9.730;2023-03-14T15:41:33;6.80;99.90
47482;DHT22;33219;47.410;9.730;2023-03-14T15:44:01;6.70;99.90
47482;DHT22;33219;47.410;9.730;2023-03-14T15:46:29;6.50;99.90
47482;DHT22;33219;47.410;9.730;2023-03-14T15:48:56;6.40;99.90
47482;DHT22;33219;47.410;9.730;2023-03-14T15:51:26;6.20;99.90
47482;DHT22;33219;47.410;9.730;2023-03-14T15:53:56;6.10;99.90
47482;DHT22;33219;47.410;9.730;2023-03-14T15:56:23;6.00;99.90
47482;DHT22;33219;47.410;9.730;2023-03-14T15:58:53;6.00;99.90
47482;DHT22;33219;47.410;9.730;2023-03-14T16:01:20;6.10;99.90
47482;DHT22;33219;47.410;9.730;2023-03-14T16:03:48;6.10;99.90
47482;DHT22;33219;47.410;9.730;2023-03-14T16:06:17;6.20;99.90
47482;DHT22;33219;47.410;9.730;2023-03-14T16:08:48;6.20;99.90
47482;DHT22;33219;47.410;9.730;2023-03-14T16:11:16;6.20;99.90
47482;DHT22;33219;47.410;9.730;2023-03-14T16:13:46;6.10;99.90
47482;DHT22;33219;47.410;9.730;2023-03-14T16:16:14;6.10;99.90
47482;DHT22;33219;47.410;9.730;2023-03-14T16:18:44;6.00;99.90
47482;DHT22;33219;47.410;9.730;2023-03-14T16:21:15;6.10;99.90
47482;DHT22;33219;47.410;9.730;2023-03-14T16:23:43;6.10;99.90
47482;DHT22;33219;47.410;9.730;2023-03-14T16:26:14;6.10;99.90
47482;DHT22;33219;47.410;9.730;2023-03-14T16:28:41;6.10;99.90
47482;DHT22;33219;47.410;9.730;2023-03-14T16:31:11;6.10;99.90
47482;DHT22;33219;47.410;9.730;2023-03-14T16:33:39;6.10;99.90
47482;DHT22;33219;47.410;9.730;2023-03-14T16:36:09;6.10;99.90
47482;DHT22;33219;47.410;9.730;2023-03-14T16:38:39;6.10;99.90
47482;DHT22;33219;47.410;9.730;2023-03-14T16:41:13;6.10;99.90
47482;DHT22;33219;47.410;9.730;2023-03-14T16:43:41;6.10;99.90
47482;DHT22;33219;47.410;9.730;2023-03-14T16:46:11;6.10;99.90
47482;DHT22;33219;47.410;9.730;2023-03-14T16:48:39;6.00;99.90
47482;DHT22;33219;47.410;9.730;2023-03-14T16:51:07;6.10;99.90
47482;DHT22;33219;47.410;9.730;2023-03-14T16:53:35;6.10;99.90
47482;DHT22;33219;47.410;9.730;2023-03-14T16:56:03;6.10;99.90
47482;DHT22;33219;47.410;9.730;2023-03-14T16:58:31;6.10;99.90
47482;DHT22;33219;47.410;9.730;2023-03-14T17:00:59;6.20;99.90
47482;DHT22;33219;47.410;9.730;2023-03-14T17:03:28;6.20;99.90
47482;DHT22;33219;47.410;9.730;2023-03-14T17:05:56;6.20;99.90
47482;DHT22;33219;47.410;9.730;2023-03-14T17:08:23;6.10;99.90
47482;DHT22;33219;47.410;9.730;2023-03-14T17:10:51;6.20;99.90
47482;DHT22;33219;47.410;9.730;2023-03-14T17:13:19;6.20;99.90
47482;DHT22;33219;47.410;9.730;2023-03-14T17:15:55;6.20;99.90
47482;DHT22;33219;47.410;9.730;2023-03-14T17:18:24;6.40;99.90
47482;DHT22;33219;47.410;9.730;2023-03-14T17:20:53;6.50;99.90
47482;DHT22;33219;47.410;9.730;2023-03-14T17:23:23;6.40;99.90
47482;DHT22;33219;47.410;9.730;2023-03-14T17:25:51;6.40;99.90
47482;DHT22;33219;47.410;9.730;2023-03-14T17:28:21;6.30;99.90
47482;DHT22;33219;47.410;9.730;2023-03-14T17:30:49;6.20;99.90
47482;DHT22;33219;47.410;9.730;2023-03-14T17:33:16;6.10;99.90
47482;DHT22;33219;47.410;9.730;2023-03-14T17:35:44;6.00;99.90
47482;DHT22;33219;47.410;9.730;2023-03-14T17:38:12;5.90;99.90
47482;DHT22;33219;47.410;9.730;2023-03-14T17:40:40;5.90;99.90
47482;DHT22;33219;47.410;9.730;2023-03-14T17:43:08;5.90;99.90
47482;DHT22;33219;47.410;9.730;2023-03-14T17:45:36;5.90;99.90
47482;DHT22;33219;47.410;9.730;2023-03-14T17:48:03;5.80;99.90
47482;DHT22;33219;47.410;9.730;2023-03-14T17:50:31;5.80;99.90
47482;DHT22;33219;47.410;9.730;2023-03-14T17:52:59;5.80;99.90
47482;DHT22;33219;47.410;9.730;2023-03-14T17:55:27;5.80;99.90
47482;DHT22;33219;47.410;9.730;2023-03-14T17:57:55;5.80;99.90
47482;DHT22;33219;47.410;9.730;2023-03-14T18:00:24;5.80;99.90
47482;DHT22;33219;47.410;9.730;2023-03-14T18:02:52;5.80;99.90
47482;DHT22;33219;47.410;9.730;2023-03-14T18:05:20;5.70;99.90
47482;DHT22;33219;47.410;9.730;2023-03-14T18:07:47;5.80;99.90
47482;DHT22;33219;47.410;9.730;2023-03-14T18:10:15;5.80;99.90
47482;DHT22;33219;47.410;9.730;2023-03-14T18:12:47;5.80;99.90
47482;DHT22;33219;47.410;9.730;2023-03-14T18:15:16;5.80;99.90
47482;DHT22;33219;47.410;9.730;2023-03-14T18:17:44;5.80;99.90
47482;DHT22;33219;47.410;9.730;2023-03-14T18:20:12;5.90;99.90
47482;DHT22;33219;47.410;9.730;2023-03-14T18:22:41;5.90;99.90
47482;DHT22;33219;47.410;9.730;2023-03-14T18:25:09;5.90;99.90
47482;DHT22;33219;47.410;9.730;2023-03-14T18:27:38;5.90;99.90
47482;DHT22;33219;47.410;9.730;2023-03-14T18:30:07;5.90;99.90
47482;DHT22;33219;47.410;9.730;2023-03-14T18:32:35;5.90;99.90
47482;DHT22;33219;47.410;9.730;2023-03-14T18:35:03;5.90;99.90
47482;DHT22;33219;47.410;9.730;2023-03-14T18:37:31;6.00;99.90
47482;DHT22;33219;47.410;9.730;2023-03-14T18:39:59;6.00;99.90
47482;DHT22;33219;47.410;9.730;2023-03-14T18:42:27;5.90;99.90
47482;DHT22;33219;47.410;9.730;2023-03-14T18:44:56;5.90;99.90
47482;DHT22;33219;47.410;9.730;2023-03-14T18:47:25;5.80;99.90
47482;DHT22;33219;47.410;9.730;2023-03-14T18:49:53;5.70;99.90
47482;DHT22;33219;47.410;9.730;2023-03-14T18:52:23;5.70;99.90
47482;DHT22;33219;47.410;9.730;2023-03-14T18:54:51;5.70;99.90
47482;DHT22;33219;47.410;9.730;2023-03-14T18:57:19;5.60;99.90
47482;DHT22;33219;47.410;9.730;2023-03-14T18:59:47;5.70;99.90
47482;DHT22;33219;47.410;9.730;2023-03-14T19:02:15;5.70;99.90
47482;DHT22;33219;47.410;9.730;2023-03-14T19:04:43;5.70;99.90
47482;DHT22;33219;47.410;9.730;2023-03-14T19:07:11;5.70;99.90
47482;DHT22;33219;47.410;9.730;2023-03-14T19:09:39;5.80;99.90
47482;DHT22;33219;47.410;9.730;2023-03-14T19:12:08;5.80;99.90
47482;DHT22;33219;47.410;9.730;2023-03-14T19:14:36;5.80;99.90
47482;DHT22;33219;47.410;9.730;2023-03-14T19:17:04;5.90;99.90
47482;DHT22;33219;47.410;9.730;2023-03-14T19:19:32;6.00;99.90
47482;DHT22;33219;47.410;9.730;2023-03-14T19:22:00;6.10;99.90
47482;DHT22;33219;47.410;9.730;2023-03-14T19:24:29;6.10;99.90
47482;DHT22;33219;47.410;9.730;2023-03-14T19:26:58;6.20;99.90
47482;DHT22;33219;47.410;9.730;2023-03-14T19:29:26;6.20;99.90
47482;DHT22;33219;47.410;9.730;2023-03-14T19:31:54;6.30;99.90
47482;DHT22;33219;47.410;9.730;2023-03-14T19:34:25;6.30;99.90
47482;DHT22;33219;47.410;9.730;2023-03-14T19:36:54;6.30;99.90
47482;DHT22;33219;47.410;9.730;2023-03-14T19:39:22;6.30;99.90
47482;DHT22;33219;47.410;9.730;2023-03-14T19:41:51;6.30;99.90
47482;DHT22;33219;47.410;9.730;2023-03-14T19:44:20;6.30;99.90
47482;DHT22;33219;47.410;9.730;2023-03-14T19:46:49;6.30;99.90
47482;DHT22;33219;47.410;9.730;2023-03-14T19:49:17;6.20;99.90
47482;DHT22;33219;47.410;9.730;2023-03-14T19:51:45;6.10;99.90
47482;DHT22;33219;47.410;9.730;2023-03-14T19:54:15;5.70;99.90
47482;DHT22;33219;47.410;9.730;2023-03-14T19:56:43;5.50;99.90
47482;DHT22;33219;47.410;9.730;2023-03-14T19:59:13;5.20;99.90